KAL228 SKCL-SKSP
Flight info
| Callsign | KAL228 |
|---|---|
| Flight time | N/A |
| Altitude | 36000 |
| Route | CLO1C SIGIR A321 ASIKO/N0460F360 UW90 BUSMO UN420 MORLI/N0363F180 A321 BIXOX BIXOX2C |
| Aircraft | B739/M-SDE2E3FGHIRWXY/LB1 |
Departure
| Time | 2026-05-01 14:40 |
|---|---|
| Airport | Alfonso Bonilla Aragon International Airport (SKCL) |
Arrival
| Time | N/A |
|---|---|
| Airport | Gustavo Rojas Pinilla International Airport (SKSP) |
| Time | Latitude | Longitude | Altitude | Speed | Heading |
|---|---|---|---|---|---|
| 2026-05-01 14:12 | 3.53646 | -76.38605 | 3161 ft | 0 kts | 279° |
| 2026-05-01 14:31 | 3.53644 | -76.38596 | 3161 ft | 4 kts | 279° |
| 2026-05-01 14:31 | 3.53640 | -76.38569 | 3161 ft | 4 kts | 279° |
| 2026-05-01 14:31 | 3.53635 | -76.38543 | 3163 ft | 4 kts | 270° |
| 2026-05-01 14:31 | 3.53643 | -76.38523 | 3165 ft | 4 kts | 207° |
| 2026-05-01 14:32 | 3.53665 | -76.38516 | 3161 ft | 1 kts | 189° |
| 2026-05-01 14:32 | 3.53669 | -76.38515 | 3161 ft | 0 kts | 189° |
| 2026-05-01 14:35 | 3.53660 | -76.38517 | 3161 ft | 4 kts | 189° |
| 2026-05-01 14:35 | 3.53613 | -76.38523 | 3162 ft | 9 kts | 182° |
| 2026-05-01 14:35 | 3.53557 | -76.38496 | 3161 ft | 9 kts | 139° |
| 2026-05-01 14:36 | 3.53490 | -76.38476 | 3161 ft | 11 kts | 187° |
| 2026-05-01 14:36 | 3.53406 | -76.38490 | 3163 ft | 13 kts | 189° |
| 2026-05-01 14:36 | 3.53318 | -76.38505 | 3161 ft | 13 kts | 190° |
| 2026-05-01 14:36 | 3.53233 | -76.38520 | 3161 ft | 12 kts | 190° |
| 2026-05-01 14:37 | 3.53150 | -76.38535 | 3161 ft | 12 kts | 190° |
| 2026-05-01 14:37 | 3.53069 | -76.38550 | 3161 ft | 12 kts | 189° |
| 2026-05-01 14:37 | 3.52990 | -76.38555 | 3161 ft | 11 kts | 166° |
| 2026-05-01 14:37 | 3.52952 | -76.38508 | 3161 ft | 7 kts | 100° |
| 2026-05-01 14:38 | 3.52964 | -76.38466 | 3161 ft | 6 kts | 56° |
| 2026-05-01 14:38 | 3.52988 | -76.38430 | 3160 ft | 6 kts | 56° |
| 2026-05-01 14:38 | 3.53015 | -76.38397 | 3161 ft | 5 kts | 35° |
| 2026-05-01 14:38 | 3.53041 | -76.38388 | 3159 ft | 3 kts | 10° |
| 2026-05-01 14:39 | 3.53042 | -76.38388 | 3159 ft | 2 kts | 10° |
| 2026-05-01 14:39 | 3.53238 | -76.38354 | 3159 ft | 62 kts | 9° |
| 2026-05-01 14:40 | 3.53884 | -76.38242 | 3164 ft | 124 kts | 10° |
| 2026-05-01 14:40 | 3.54903 | -76.38072 | 3165 ft | 172 kts | 6° |
| 2026-05-01 14:40 | 3.56161 | -76.37913 | 3515 ft | 187 kts | 8° |
| 2026-05-01 14:40 | 3.57449 | -76.37715 | 4209 ft | 188 kts | 9° |
| 2026-05-01 14:41 | 3.58749 | -76.37475 | 4840 ft | 192 kts | 10° |
| 2026-05-01 14:41 | 3.60097 | -76.37196 | 5384 ft | 201 kts | 10° |
| 2026-05-01 14:41 | 3.61456 | -76.36902 | 6044 ft | 204 kts | 10° |
| 2026-05-01 14:41 | 3.62881 | -76.36610 | 6513 ft | 209 kts | 10° |
| 2026-05-01 14:42 | 3.64288 | -76.36344 | 7173 ft | 203 kts | 10° |
| 2026-05-01 14:42 | 3.65690 | -76.36000 | 7585 ft | 213 kts | 22° |
| 2026-05-01 14:42 | 3.66935 | -76.35200 | 8057 ft | 215 kts | 47° |
| 2026-05-01 14:42 | 3.67663 | -76.33908 | 8554 ft | 216 kts | 78° |
| 2026-05-01 14:43 | 3.67570 | -76.32419 | 9003 ft | 219 kts | 112° |
| 2026-05-01 14:43 | 3.66737 | -76.31186 | 9685 ft | 213 kts | 136° |
| 2026-05-01 14:43 | 3.65502 | -76.30338 | 10028 ft | 226 kts | 155° |
| 2026-05-01 14:43 | 3.63946 | -76.30004 | 10442 ft | 233 kts | 182° |
| 2026-05-01 14:44 | 3.62411 | -76.30424 | 11082 ft | 229 kts | 203° |
| 2026-05-01 14:44 | 3.59503 | -76.31836 | 12030 ft | 235 kts | 202° |
| 2026-05-01 14:44 | 3.58041 | -76.32606 | 12432 ft | 246 kts | 215° |
| 2026-05-01 14:45 | 3.57027 | -76.34058 | 12546 ft | 270 kts | 253° |
| 2026-05-01 14:45 | 3.57804 | -76.37930 | 12846 ft | 313 kts | 301° |
| 2026-05-01 14:45 | 3.59076 | -76.39785 | 13022 ft | 334 kts | 308° |
| 2026-05-01 14:46 | 3.60558 | -76.41662 | 13176 ft | 354 kts | 309° |
| 2026-05-01 14:46 | 3.63753 | -76.45725 | 13752 ft | 381 kts | 308° |
| 2026-05-01 14:46 | 3.65363 | -76.47853 | 14262 ft | 385 kts | 308° |
| 2026-05-01 14:47 | 3.66969 | -76.50014 | 14828 ft | 388 kts | 307° |
| 2026-05-01 14:47 | 3.68569 | -76.52188 | 15345 ft | 390 kts | 307° |
| 2026-05-01 14:47 | 3.70184 | -76.54388 | 15867 ft | 393 kts | 307° |
| 2026-05-01 14:48 | 3.73489 | -76.58823 | 16843 ft | 400 kts | 311° |
| 2026-05-01 14:48 | 3.75475 | -76.60771 | 17348 ft | 401 kts | 322° |
| 2026-05-01 14:48 | 3.80185 | -76.63732 | 18350 ft | 405 kts | 332° |
| 2026-05-01 14:49 | 3.85131 | -76.66506 | 19194 ft | 409 kts | 332° |
| 2026-05-01 14:49 | 3.90116 | -76.69333 | 20012 ft | 414 kts | 332° |
| 2026-05-01 14:50 | 3.93479 | -76.71259 | 20514 ft | 417 kts | 331° |
| 2026-05-01 14:50 | 4.00219 | -76.75139 | 21601 ft | 422 kts | 331° |
| 2026-05-01 14:51 | 4.02772 | -76.76610 | 21979 ft | 424 kts | 331° |
| 2026-05-01 14:51 | 4.07884 | -76.79555 | 22674 ft | 429 kts | 331° |
| 2026-05-01 14:52 | 4.13103 | -76.82562 | 23493 ft | 431 kts | 331° |
| 2026-05-01 14:52 | 4.15679 | -76.84046 | 23752 ft | 434 kts | 331° |
| 2026-05-01 14:52 | 4.20936 | -76.87075 | 24284 ft | 437 kts | 330° |
| 2026-05-01 14:53 | 4.23569 | -76.88592 | 24654 ft | 437 kts | 330° |
| 2026-05-01 14:53 | 4.26203 | -76.90113 | 24958 ft | 438 kts | 330° |
| 2026-05-01 14:53 | 4.28854 | -76.91649 | 25200 ft | 441 kts | 330° |
| 2026-05-01 14:53 | 4.31513 | -76.93193 | 25452 ft | 443 kts | 330° |
| 2026-05-01 14:54 | 4.34180 | -76.94742 | 25731 ft | 444 kts | 330° |
| 2026-05-01 14:54 | 4.36859 | -76.96299 | 25998 ft | 445 kts | 330° |
| 2026-05-01 14:54 | 4.37695 | -76.96785 | 26078 ft | 446 kts | 329° |
| 2026-05-01 14:54 | 4.40350 | -76.98327 | 26320 ft | 448 kts | 329° |
| 2026-05-01 14:55 | 4.43053 | -76.99897 | 26603 ft | 450 kts | 329° |
| 2026-05-01 14:55 | 4.45762 | -77.01471 | 26886 ft | 450 kts | 329° |
| 2026-05-01 14:55 | 4.48469 | -77.03043 | 27117 ft | 453 kts | 329° |
| 2026-05-01 14:55 | 4.51202 | -77.04630 | 27311 ft | 456 kts | 329° |
| 2026-05-01 14:56 | 4.53918 | -77.06208 | 27555 ft | 457 kts | 329° |
| 2026-05-01 14:56 | 4.56671 | -77.07807 | 27834 ft | 458 kts | 329° |
| 2026-05-01 14:56 | 4.59429 | -77.09410 | 28092 ft | 459 kts | 329° |
| 2026-05-01 14:56 | 4.62195 | -77.11017 | 28335 ft | 460 kts | 329° |
| 2026-05-01 14:57 | 4.64973 | -77.12631 | 28557 ft | 462 kts | 329° |
| 2026-05-01 14:57 | 4.70554 | -77.15875 | 29006 ft | 465 kts | 329° |
| 2026-05-01 14:57 | 4.73358 | -77.17504 | 29226 ft | 467 kts | 329° |
| 2026-05-01 14:58 | 4.76167 | -77.19137 | 29440 ft | 468 kts | 328° |
| 2026-05-01 14:58 | 4.78994 | -77.20781 | 29655 ft | 470 kts | 328° |
| 2026-05-01 14:58 | 4.81824 | -77.22426 | 29865 ft | 471 kts | 328° |
| 2026-05-01 14:58 | 4.84656 | -77.24072 | 30242 ft | 467 kts | 328° |
| 2026-05-01 14:59 | 4.87440 | -77.25690 | 30764 ft | 460 kts | 328° |
| 2026-05-01 14:59 | 4.90193 | -77.27290 | 31212 ft | 455 kts | 328° |
| 2026-05-01 14:59 | 4.92920 | -77.28876 | 31611 ft | 452 kts | 328° |
| 2026-05-01 14:59 | 4.95644 | -77.30460 | 31905 ft | 452 kts | 328° |
| 2026-05-01 15:00 | 5.03816 | -77.35217 | 31921 ft | 454 kts | 328° |
| 2026-05-01 15:01 | 5.09291 | -77.38403 | 31926 ft | 451 kts | 328° |
| 2026-05-01 15:01 | 5.14664 | -77.41530 | 31923 ft | 449 kts | 328° |
| 2026-05-01 15:02 | 5.20089 | -77.44689 | 31926 ft | 448 kts | 328° |